createdAt,value
2023-03-03T00:03:36.489Z,100757.26
2023-03-03T00:07:40.498Z,100754.76
2023-03-03T00:11:44.804Z,100759.08
2023-03-03T00:15:48.482Z,100761.48
2023-03-03T00:19:52.512Z,100756.13
2023-03-03T00:24:11.122Z,100755.60
2023-03-03T00:28:23.204Z,100761.45
2023-03-03T00:32:30.025Z,100759.75
2023-03-03T00:36:41.165Z,100755.46
2023-03-03T00:40:44.859Z,100753.31
2023-03-03T00:44:49.568Z,100756.38
2023-03-03T00:48:53.001Z,100747.14
2023-03-03T00:53:17.325Z,100744.59
2023-03-03T00:57:20.680Z,100756.38
2023-03-03T01:01:25.659Z,100759.58
2023-03-03T01:05:29.018Z,100766.50
2023-03-03T01:09:32.279Z,100759.54
2023-03-03T01:13:38.235Z,100750.73
2023-03-03T01:17:42.390Z,100751.00
2023-03-03T01:21:45.690Z,100744.22
2023-03-03T01:25:48.908Z,100734.38
2023-03-03T01:29:52.102Z,100734.30
2023-03-03T01:33:55.523Z,100732.75
2023-03-03T01:37:59.568Z,100724.98
2023-03-03T01:42:03.549Z,100716.52
2023-03-03T01:46:06.765Z,100710.38
2023-03-03T01:50:20.944Z,100710.16
2023-03-03T01:54:34.072Z,100713.52
2023-03-03T01:58:58.207Z,100701.82
2023-03-03T02:03:02.086Z,100692.77
2023-03-03T02:07:11.701Z,100695.90
2023-03-03T02:11:16.455Z,100696.21
2023-03-03T02:15:32.510Z,100701.39
2023-03-03T02:19:54.818Z,100701.84
2023-03-03T02:24:09.396Z,100702.14
2023-03-03T02:28:13.030Z,100705.23
2023-03-03T02:32:17.138Z,100702.20
2023-03-03T02:36:24.010Z,100694.26
2023-03-03T02:40:31.998Z,100695.52
2023-03-03T02:44:35.966Z,100701.44
2023-03-03T02:48:39.095Z,100704.99
2023-03-03T02:52:42.152Z,100724.91
2023-03-03T02:56:45.884Z,100727.89
2023-03-03T03:00:49.109Z,100723.39
2023-03-03T03:04:52.276Z,100728.52
2023-03-03T03:08:55.637Z,100728.58
2023-03-03T03:12:58.632Z,100734.20
2023-03-03T03:17:01.744Z,100733.86
2023-03-03T03:21:10.365Z,100731.70
2023-03-03T03:25:13.671Z,100722.69
2023-03-03T03:29:17.223Z,100718.21
2023-03-03T03:33:20.775Z,100713.91
2023-03-03T03:37:27.355Z,100699.52
2023-03-03T03:41:30.997Z,100689.73
2023-03-03T03:45:34.407Z,100703.02
2023-03-03T03:49:37.609Z,100714.75
2023-03-03T03:53:40.838Z,100725.20
2023-03-03T03:57:44.155Z,100720.64
2023-03-03T04:01:48.393Z,100726.76
2023-03-03T04:05:53.802Z,100727.08
2023-03-03T04:09:57.834Z,100728.19
2023-03-03T04:14:01.192Z,100738.08
2023-03-03T04:18:04.890Z,100743.41
2023-03-03T04:22:08.021Z,100752.81
2023-03-03T04:26:11.466Z,100757.25
2023-03-03T04:30:16.383Z,100748.77
2023-03-03T04:34:19.825Z,100747.20
2023-03-03T04:38:23.119Z,100746.27
2023-03-03T04:42:28.253Z,100749.98
2023-03-03T04:46:32.017Z,100760.32
2023-03-03T04:50:36.043Z,100763.69
2023-03-03T04:54:39.605Z,100761.34
2023-03-03T04:58:42.622Z,100757.05
2023-03-03T05:02:48.342Z,100768.22
2023-03-03T05:06:52.538Z,100757.88
2023-03-03T05:10:56.648Z,100755.31
2023-03-03T05:15:00.037Z,100749.19
2023-03-03T05:19:03.951Z,100740.96
2023-03-03T05:23:09.800Z,100746.80
2023-03-03T05:27:12.888Z,100757.05
2023-03-03T05:31:16.358Z,100754.73
2023-03-03T05:35:20.821Z,100751.63
2023-03-03T05:39:28.502Z,100756.17
2023-03-03T05:43:31.568Z,100758.48
2023-03-03T05:47:34.684Z,100746.71
2023-03-03T05:51:38.194Z,100751.23
2023-03-03T05:55:41.750Z,100749.48
2023-03-03T05:59:45.192Z,100745.05
2023-03-03T06:03:49.014Z,100749.58
2023-03-03T06:07:52.017Z,100756.64
2023-03-03T06:11:55.591Z,100762.63
2023-03-03T06:15:59.130Z,100763.60
2023-03-03T06:20:03.514Z,100767.89
2023-03-03T06:24:07.691Z,100774.92
2023-03-03T06:28:10.781Z,100772.08
2023-03-03T06:32:14.399Z,100782.45
2023-03-03T06:36:18.576Z,100778.89
2023-03-03T06:40:22.208Z,100788.88
2023-03-03T06:44:27.096Z,100794.38
2023-03-03T06:48:33.234Z,100791.34
2023-03-03T06:52:36.494Z,100795.33
2023-03-03T06:56:39.817Z,100796.92
2023-03-03T07:00:46.089Z,100801.05
2023-03-03T07:04:49.579Z,100804.09
2023-03-03T07:08:53.450Z,100818.38
2023-03-03T07:13:07.070Z,100831.45
2023-03-03T07:17:17.645Z,100841.79
2023-03-03T07:21:31.611Z,100834.47
2023-03-03T07:25:35.720Z,100823.17
2023-03-03T07:29:41.401Z,100822.14
2023-03-03T07:33:46.472Z,100831.56
2023-03-03T07:37:50.402Z,100823.56
2023-03-03T07:42:12.821Z,100818.23
2023-03-03T07:46:48.244Z,100820.84
2023-03-03T07:50:51.984Z,100830.10
2023-03-03T07:54:58.143Z,100822.86
2023-03-03T07:59:07.794Z,100820.09
2023-03-03T08:03:17.122Z,100825.11
2023-03-03T08:07:22.633Z,100829.77
2023-03-03T08:11:25.849Z,100824.29
2023-03-03T08:15:33.878Z,100832.84
2023-03-03T08:19:37.106Z,100828.41
2023-03-03T08:23:41.063Z,100826.86
2023-03-03T08:27:44.744Z,100827.48
2023-03-03T08:31:48.455Z,100831.93
2023-03-03T08:35:52.332Z,100818.84
2023-03-03T08:39:55.568Z,100812.17
2023-03-03T08:43:59.020Z,100819.08
2023-03-03T08:48:04.177Z,100823.36
2023-03-03T08:52:09.505Z,100827.51
2023-03-03T08:56:13.007Z,100828.98
2023-03-03T09:00:18.289Z,100830.77
2023-03-03T09:04:21.545Z,100842.31
2023-03-03T09:08:24.865Z,100850.46
2023-03-03T09:12:38.252Z,100854.55
2023-03-03T09:16:53.503Z,100850.67
2023-03-03T09:20:57.820Z,100847.67
2023-03-03T09:25:02.253Z,100852.77
2023-03-03T09:29:14.769Z,100856.90
2023-03-03T09:33:23.568Z,100863.01
2023-03-03T09:37:40.511Z,100858.33
2023-03-03T09:42:11.655Z,100859.54
2023-03-03T09:46:46.412Z,100870.35
2023-03-03T09:51:15.674Z,100869.76
2023-03-03T09:55:37.381Z,100864.70
2023-03-03T10:00:13.101Z,100858.53
2023-03-03T10:04:39.381Z,100852.77
2023-03-03T10:08:54.738Z,100859.18
2023-03-03T10:13:25.868Z,100856.64
2023-03-03T10:17:40.401Z,100862.56
2023-03-03T10:21:55.285Z,100869.61
2023-03-03T10:26:25.087Z,100876.33
2023-03-03T10:31:04.839Z,100873.41
2023-03-03T10:35:51.154Z,100872.10
2023-03-03T10:40:32.985Z,100872.19
2023-03-03T10:44:53.166Z,100866.24
2023-03-03T10:48:56.988Z,100866.23
2023-03-03T10:53:29.900Z,100867.83
2023-03-03T10:57:58.968Z,100864.35
2023-03-03T11:02:07.689Z,100856.20
2023-03-03T11:06:14.218Z,100848.20
2023-03-03T11:10:42.048Z,100846.66
2023-03-03T11:15:04.215Z,100842.33
2023-03-03T11:19:24.613Z,100840.70
2023-03-03T11:23:43.288Z,100825.34
2023-03-03T11:28:14.153Z,100814.52
2023-03-03T11:32:23.953Z,100807.77
2023-03-03T11:36:39.542Z,100802.54
2023-03-03T11:40:53.885Z,100803.18
2023-03-03T11:45:02.474Z,100800.06
2023-03-03T11:49:22.661Z,100806.58
2023-03-03T11:53:29.754Z,100810.99
2023-03-03T11:57:45.255Z,100803.98
2023-03-03T12:01:56.804Z,100797.70
2023-03-03T12:06:21.657Z,100796.64
2023-03-03T12:11:00.248Z,100793.30
2023-03-03T12:15:19.439Z,100785.44
2023-03-03T12:19:31.222Z,100786.03
2023-03-03T12:23:56.756Z,100787.89
2023-03-03T12:28:20.528Z,100789.56
2023-03-03T12:32:51.366Z,100794.36
2023-03-03T12:37:11.612Z,100787.88
2023-03-03T12:41:29.567Z,100785.92
2023-03-03T12:45:44.763Z,100784.49
2023-03-03T12:50:23.178Z,100780.15
2023-03-03T12:54:54.590Z,100780.97
2023-03-03T12:59:15.537Z,100785.92
2023-03-03T13:03:30.367Z,100782.34
2023-03-03T13:07:52.397Z,100781.19
2023-03-03T13:12:33.912Z,100775.73
2023-03-03T13:16:49.871Z,100775.27
2023-03-03T13:21:05.537Z,100778.34
2023-03-03T13:25:39.473Z,100775.70
2023-03-03T13:29:43.828Z,100773.55
2023-03-03T13:33:55.835Z,100778.80
2023-03-03T13:38:01.968Z,100775.45
2023-03-03T13:42:18.186Z,100775.55
2023-03-03T13:46:36.774Z,100773.41
2023-03-03T13:50:49.681Z,100759.70
2023-03-03T13:55:12.065Z,100766.37
2023-03-03T13:59:37.036Z,100756.32
2023-03-03T14:04:07.946Z,100758.80
2023-03-03T14:08:36.543Z,100752.93
2023-03-03T14:12:51.494Z,100759.08
2023-03-03T14:17:08.872Z,100750.20
2023-03-03T14:21:12.412Z,100747.91
2023-03-03T14:25:16.310Z,100750.02
2023-03-03T14:29:28.578Z,100743.70
2023-03-03T14:33:32.518Z,100738.91
2023-03-03T14:37:46.747Z,100744.08
2023-03-03T14:41:52.647Z,100749.79
2023-03-03T14:45:56.940Z,100750.23
2023-03-03T14:50:00.516Z,100747.81
2023-03-03T14:54:14.472Z,100745.67
2023-03-03T14:58:46.956Z,100728.27
2023-03-03T15:02:52.727Z,100725.32
2023-03-03T15:06:56.203Z,100727.98
2023-03-03T15:11:25.982Z,100726.52
2023-03-03T15:15:30.106Z,100714.67
2023-03-03T15:19:48.556Z,100714.74
2023-03-03T15:23:51.463Z,100711.02
2023-03-03T15:28:23.925Z,100718.48
2023-03-03T15:32:40.674Z,100714.14
2023-03-03T15:36:49.413Z,100714.08
2023-03-03T15:41:24.924Z,100706.98
2023-03-03T15:45:46.646Z,100704.77
2023-03-03T15:50:08.222Z,100701.13
2023-03-03T15:54:41.569Z,100713.60
2023-03-03T15:59:02.742Z,100713.13
2023-03-03T16:03:14.411Z,100698.20
2023-03-03T16:07:35.529Z,100693.27
2023-03-03T16:11:51.221Z,100692.83
2023-03-03T16:16:06.476Z,100680.79
2023-03-03T16:20:15.438Z,100690.66
2023-03-03T16:24:46.264Z,100689.42
2023-03-03T16:29:28.284Z,100698.10
2023-03-03T16:34:00.491Z,100697.07
2023-03-03T16:38:14.343Z,100700.19
2023-03-03T16:42:29.359Z,100699.30
2023-03-03T16:46:39.017Z,100697.04
2023-03-03T16:51:18.244Z,100697.76
2023-03-03T16:55:35.838Z,100694.37
2023-03-03T17:00:00.385Z,100697.73
2023-03-03T17:04:21.681Z,100706.06
2023-03-03T17:08:27.705Z,100711.52
2023-03-03T17:12:52.210Z,100711.10
2023-03-03T17:17:01.252Z,100715.44
2023-03-03T17:21:15.697Z,100725.52
2023-03-03T17:25:38.211Z,100728.06
2023-03-03T17:30:02.061Z,100717.76
2023-03-03T17:34:37.934Z,100722.27
2023-03-03T17:39:05.127Z,100721.41
2023-03-03T17:43:15.420Z,100715.79
2023-03-03T17:47:45.405Z,100710.89
2023-03-03T17:52:09.239Z,100708.32
2023-03-03T17:56:28.708Z,100703.79
2023-03-03T18:00:51.241Z,100701.77
2023-03-03T18:05:12.372Z,100704.06
2023-03-03T18:09:54.273Z,100708.70
2023-03-03T18:14:07.813Z,100697.42
2023-03-03T18:18:22.946Z,100699.62
2023-03-03T18:22:31.244Z,100706.02
2023-03-03T18:26:43.905Z,100713.30
2023-03-03T18:30:46.935Z,100711.34
2023-03-03T18:35:26.774Z,100712.38
2023-03-03T18:39:45.931Z,100715.40
2023-03-03T18:44:22.503Z,100713.70
2023-03-03T18:48:56.771Z,100721.91
2023-03-03T18:53:11.527Z,100719.00
2023-03-03T18:57:17.964Z,100723.88
2023-03-03T19:01:41.702Z,100726.45
2023-03-03T19:05:54.466Z,100721.52
2023-03-03T19:10:20.211Z,100726.23
2023-03-03T19:14:27.941Z,100727.25
2023-03-03T19:18:36.077Z,100733.04
2023-03-03T19:22:51.023Z,100734.52
2023-03-03T19:27:12.320Z,100730.84
2023-03-03T19:31:26.935Z,100730.81
2023-03-03T19:36:01.433Z,100729.72
2023-03-03T19:40:25.162Z,100727.52
2023-03-03T19:44:30.782Z,100723.70
2023-03-03T19:48:33.531Z,100717.45
2023-03-03T19:53:01.270Z,100720.88
2023-03-03T19:57:10.833Z,100711.96
2023-03-03T20:01:32.027Z,100706.63
2023-03-03T20:05:48.891Z,100706.33
2023-03-03T20:10:04.429Z,100703.08
2023-03-03T20:14:26.387Z,100698.30
2023-03-03T20:18:48.441Z,100693.78
2023-03-03T20:23:33.340Z,100698.27
2023-03-03T20:27:50.870Z,100700.46
2023-03-03T20:32:06.912Z,100697.63
2023-03-03T20:36:13.006Z,100697.19
2023-03-03T20:40:31.129Z,100696.68
2023-03-03T20:44:58.954Z,100688.13
2023-03-03T20:49:04.927Z,100686.06
2023-03-03T20:53:17.137Z,100685.85
2023-03-03T20:57:36.481Z,100681.85
2023-03-03T21:02:04.262Z,100676.27
2023-03-03T21:06:16.386Z,100683.98
2023-03-03T21:10:24.451Z,100684.67
2023-03-03T21:14:35.826Z,100685.21
2023-03-03T21:18:39.239Z,100678.23
2023-03-03T21:22:42.738Z,100674.55
2023-03-03T21:27:00.655Z,100668.39
2023-03-03T21:31:14.783Z,100672.23
2023-03-03T21:35:21.876Z,100665.70
2023-03-03T21:39:27.892Z,100660.23
2023-03-03T21:43:36.758Z,100649.61
2023-03-03T21:47:39.980Z,100645.84
2023-03-03T21:51:43.152Z,100634.14
2023-03-03T21:55:48.977Z,100635.45
2023-03-03T21:59:53.609Z,100633.89
2023-03-03T22:03:57.097Z,100631.58
2023-03-03T22:08:00.450Z,100623.83
2023-03-03T22:12:04.596Z,100634.39
2023-03-03T22:16:08.229Z,100621.10
2023-03-03T22:20:12.642Z,100609.84
2023-03-03T22:24:16.342Z,100607.59
2023-03-03T22:28:19.475Z,100602.67
2023-03-03T22:32:22.967Z,100603.19
2023-03-03T22:36:26.158Z,100599.77
2023-03-03T22:40:29.665Z,100589.83
2023-03-03T22:44:32.848Z,100585.45
2023-03-03T22:48:36.358Z,100582.08
2023-03-03T22:52:39.684Z,100575.48
2023-03-03T22:56:43.078Z,100576.96
2023-03-03T23:00:49.985Z,100565.52
2023-03-03T23:04:58.373Z,100559.84
2023-03-03T23:09:01.714Z,100546.60
2023-03-03T23:13:05.242Z,100534.73
2023-03-03T23:17:08.511Z,100526.48
2023-03-03T23:21:11.857Z,100514.18
2023-03-03T23:25:15.947Z,100503.70
2023-03-03T23:29:19.649Z,100506.00
2023-03-03T23:33:23.369Z,100500.27
2023-03-03T23:37:26.609Z,100495.92
2023-03-03T23:41:30.118Z,100494.83
2023-03-03T23:45:33.458Z,100486.43
2023-03-03T23:49:37.186Z,100481.55
2023-03-03T23:53:40.520Z,100468.77
2023-03-03T23:57:43.880Z,100459.75
